Settsu — JQWO — position and weather

sailwx.info

Track history (hours):
 
Tides and Currents Weather Stations Pressure Air Temp Water Temp Dewpoint Dewpoint Depression Visibility Wind Speed Wind Dir Waves Ship Positions

Settsu

Last reported at 2017-Oct-31 01:01 UTC. Time now 2017-Nov-22 14:47 UTC.
Position N 34°38' E 134°58'.
Warning: this ship's position is 22 days out of date.

Length 105 m; draft 5.2 m.

Type: SAR. MMSI: 431282000.

Date/timePositionNaut miles runAvg speedWind from/ knotsBaromVisibWave heightAir tempDewpointWater temp
2017-Oct-31 01:01N 34°38' E 134°58'115.0
2017-Oct-31 00:59N 34°38' E 134°59'713.9
2017-Oct-31 00:30N 34°36' E 135°07'815.5
2017-Oct-31 00:00N 34°38' E 135°16'4 8.5
2017-Oct-30 23:30N 34°41' E 135°13'0 0.0
2017-Oct-29 12:46N 34°41' E 135°13'0 0.2
2017-Oct-29 12:30N 34°41' E 135°13'3 6.8
2017-Oct-29 12:00N 34°39' E 135°16'612.9
2017-Oct-29 11:30N 34°35' E 135°10'816.4
2017-Oct-29 11:00N 34°37' E 135°01'915.8
2017-Oct-29 10:28N 34°38' E 134°50'  
2017-Oct-25 01:04N 34°41' E 135°13'0 0.1
2017-Oct-25 01:00N 34°41' E 135°13'1 1.6
2017-Oct-25 00:30N 34°41' E 135°14'5 9.7
2017-Oct-25 00:00N 34°38' E 135°18'2 4.3
2017-Oct-24 23:30N 34°40' E 135°20'0 0.3
2017-Oct-24 23:00N 34°40' E 135°20'0 0.3
2017-Oct-24 22:22N 34°40' E 135°20'0 0.0
2017-Oct-24 21:52N 34°40' E 135°20'0 0.0
2017-Oct-24 21:22N 34°40' E 135°20'0 0.0
2017-Oct-24 20:58N 34°40' E 135°20'0 0.0
2017-Oct-24 20:28N 34°40' E 135°20'0 0.1
2017-Oct-24 19:58N 34°40' E 135°20'0 0.1
2017-Oct-24 19:28N 34°40' E 135°20'0 0.0
2017-Oct-24 18:52N 34°40' E 135°20'0 0.0
2017-Oct-24 18:28N 34°40' E 135°20'0 0.0
2017-Oct-24 17:46N 34°40' E 135°20'0 0.0
2017-Oct-24 17:28N 34°40' E 135°20'0 0.0
2017-Oct-24 16:58N 34°40' E 135°20'0 0.0
2017-Oct-24 16:28N 34°40' E 135°20'0 0.1
2017-Oct-24 15:58N 34°40' E 135°20'0 0.1
2017-Oct-24 15:16N 34°40' E 135°20'0 0.0
2017-Oct-24 14:58N 34°40' E 135°20'0 0.0
2017-Oct-24 14:28N 34°40' E 135°20'0 0.0
2017-Oct-24 13:58N 34°40' E 135°20'0 0.0
2017-Oct-24 13:28N 34°40' E 135°20'0 0.1
2017-Oct-24 12:58N 34°40' E 135°20'0 0.0
2017-Oct-24 12:28N 34°40' E 135°20'0 0.0
2017-Oct-24 11:58N 34°40' E 135°20'0 0.0
2017-Oct-24 11:28N 34°40' E 135°20'0 0.0
2017-Oct-24 10:53N 34°40' E 135°20'0 0.1
2017-Oct-24 10:30N 34°40' E 135°20'0 0.1
2017-Oct-24 10:00N 34°40' E 135°20'0 0.1
2017-Oct-24 09:30N 34°40' E 135°20'1 2.7
2017-Oct-24 09:00N 34°39' E 135°20'611.1
2017-Oct-24 08:30N 34°41' E 135°14'1 2.1
2017-Oct-24 08:00N 34°41' E 135°13'0 0.0
2017-Oct-24 07:30N 34°41' E 135°13'2 3.3
2017-Oct-24 07:00N 34°41' E 135°15'611.2
2017-Oct-24 06:31N 34°35' E 135°14'816.8
2017-Oct-24 06:01N 34°31' E 135°05'6 9.9
2017-Oct-24 05:23N 34°29' E 134°58'1 1.8
2017-Oct-24 04:58N 34°29' E 134°58'1 1.5
2017-Oct-24 04:28N 34°29' E 134°59'1 1.3
2017-Oct-24 03:38N 34°29' E 135°00'1 3.2
2017-Oct-24 03:27N 34°29' E 135°01'2 3.5
2017-Oct-24 03:01N 34°30' E 135°03'1 1.1
2017-Oct-24 02:28N 34°30' E 135°04'4 9.0
2017-Oct-24 02:00N 34°33' E 135°08'816.5
2017-Oct-24 01:31N 34°38' E 135°16'4 8.5
2017-Oct-24 01:00N 34°41' E 135°13'0 0.0
2017-Oct-24 00:30N 34°41' E 135°13'0 0.0
2017-Oct-23 07:15N 34°41' E 135°13'0 0.6
2017-Oct-23 07:01N 34°41' E 135°12'4 8.9
2017-Oct-23 06:30N 34°38' E 135°16'714.7
2017-Oct-23 06:00N 34°35' E 135°08'917.5
2017-Oct-23 05:30N 34°36' E 134°58'918.0
2017-Oct-23 04:58N 34°40' E 134°47'2 0.0
2017-Oct-21 10:48N 34°41' E 134°46'714.9
2017-Oct-21 10:21N 34°37' E 134°53'616.1
2017-Oct-21 09:59N 34°38' E 134°60'613.2
2017-Oct-21 09:30N 34°34' E 135°06'917.0
2017-Oct-21 08:58N 34°26' E 135°03'816.8
2017-Oct-21 08:28N 34°18' E 134°59'714.2
2017-Oct-21 08:01N 34°11' E 134°59'816.8
2017-Oct-21 07:31N 34°03' E 134°59'  
Track history (hours):
 
Tides and Currents Weather Stations Pressure Air Temp Water Temp Dewpoint Dewpoint Depression Visibility Wind Speed Wind Dir Waves Ship Positions

Settsu

Last reported at 2017-Oct-31 01:01 UTC. Time now 2017-Nov-22 14:47 UTC.
Position N 34°38' E 134°58'.
Warning: this ship's position is 22 days out of date.

Length 105 m; draft 5.2 m.

Type: SAR. MMSI: 431282000.

Date/timePositionNaut miles runAvg speedWind from/ knotsBaromVisibWave heightAir tempDewpointWater temp
2017-Oct-31 01:01N 34°38' E 134°58'115.0
2017-Oct-31 00:59N 34°38' E 134°59'713.9
2017-Oct-31 00:30N 34°36' E 135°07'815.5
2017-Oct-31 00:00N 34°38' E 135°16'4 8.5
2017-Oct-30 23:30N 34°41' E 135°13'0 0.0
2017-Oct-29 12:46N 34°41' E 135°13'0 0.2
2017-Oct-29 12:30N 34°41' E 135°13'3 6.8
2017-Oct-29 12:00N 34°39' E 135°16'612.9
2017-Oct-29 11:30N 34°35' E 135°10'816.4
2017-Oct-29 11:00N 34°37' E 135°01'915.8
2017-Oct-29 10:28N 34°38' E 134°50'  
2017-Oct-25 01:04N 34°41' E 135°13'0 0.1
2017-Oct-25 01:00N 34°41' E 135°13'1 1.6
2017-Oct-25 00:30N 34°41' E 135°14'5 9.7
2017-Oct-25 00:00N 34°38' E 135°18'2 4.3
2017-Oct-24 23:30N 34°40' E 135°20'0 0.3
2017-Oct-24 23:00N 34°40' E 135°20'0 0.3
2017-Oct-24 22:22N 34°40' E 135°20'0 0.0
2017-Oct-24 21:52N 34°40' E 135°20'0 0.0
2017-Oct-24 21:22N 34°40' E 135°20'0 0.0
2017-Oct-24 20:58N 34°40' E 135°20'0 0.0
2017-Oct-24 20:28N 34°40' E 135°20'0 0.1
2017-Oct-24 19:58N 34°40' E 135°20'0 0.1
2017-Oct-24 19:28N 34°40' E 135°20'0 0.0
2017-Oct-24 18:52N 34°40' E 135°20'0 0.0
2017-Oct-24 18:28N 34°40' E 135°20'0 0.0
2017-Oct-24 17:46N 34°40' E 135°20'0 0.0
2017-Oct-24 17:28N 34°40' E 135°20'0 0.0
2017-Oct-24 16:58N 34°40' E 135°20'0 0.0
2017-Oct-24 16:28N 34°40' E 135°20'0 0.1
2017-Oct-24 15:58N 34°40' E 135°20'0 0.1
2017-Oct-24 15:16N 34°40' E 135°20'0 0.0
2017-Oct-24 14:58N 34°40' E 135°20'0 0.0
2017-Oct-24 14:28N 34°40' E 135°20'0 0.0
2017-Oct-24 13:58N 34°40' E 135°20'0 0.0
2017-Oct-24 13:28N 34°40' E 135°20'0 0.1
2017-Oct-24 12:58N 34°40' E 135°20'0 0.0
2017-Oct-24 12:28N 34°40' E 135°20'0 0.0
2017-Oct-24 11:58N 34°40' E 135°20'0 0.0
2017-Oct-24 11:28N 34°40' E 135°20'0 0.0
2017-Oct-24 10:53N 34°40' E 135°20'0 0.1
2017-Oct-24 10:30N 34°40' E 135°20'0 0.1
2017-Oct-24 10:00N 34°40' E 135°20'0 0.1
2017-Oct-24 09:30N 34°40' E 135°20'1 2.7
2017-Oct-24 09:00N 34°39' E 135°20'611.1
2017-Oct-24 08:30N 34°41' E 135°14'1 2.1
2017-Oct-24 08:00N 34°41' E 135°13'0 0.0
2017-Oct-24 07:30N 34°41' E 135°13'2 3.3
2017-Oct-24 07:00N 34°41' E 135°15'611.2
2017-Oct-24 06:31N 34°35' E 135°14'816.8
2017-Oct-24 06:01N 34°31' E 135°05'6 9.9
2017-Oct-24 05:23N 34°29' E 134°58'1 1.8
2017-Oct-24 04:58N 34°29' E 134°58'1 1.5
2017-Oct-24 04:28N 34°29' E 134°59'1 1.3
2017-Oct-24 03:38N 34°29' E 135°00'1 3.2
2017-Oct-24 03:27N 34°29' E 135°01'2 3.5
2017-Oct-24 03:01N 34°30' E 135°03'1 1.1
2017-Oct-24 02:28N 34°30' E 135°04'4 9.0
2017-Oct-24 02:00N 34°33' E 135°08'816.5
2017-Oct-24 01:31N 34°38' E 135°16'4 8.5
2017-Oct-24 01:00N 34°41' E 135°13'0 0.0
2017-Oct-24 00:30N 34°41' E 135°13'0 0.0
2017-Oct-23 07:15N 34°41' E 135°13'0 0.6
2017-Oct-23 07:01N 34°41' E 135°12'4 8.9
2017-Oct-23 06:30N 34°38' E 135°16'714.7
2017-Oct-23 06:00N 34°35' E 135°08'917.5
2017-Oct-23 05:30N 34°36' E 134°58'918.0
2017-Oct-23 04:58N 34°40' E 134°47'2 0.0
2017-Oct-21 10:48N 34°41' E 134°46'714.9
2017-Oct-21 10:21N 34°37' E 134°53'616.1
2017-Oct-21 09:59N 34°38' E 134°60'613.2
2017-Oct-21 09:30N 34°34' E 135°06'917.0
2017-Oct-21 08:58N 34°26' E 135°03'816.8
2017-Oct-21 08:28N 34°18' E 134°59'714.2
2017-Oct-21 08:01N 34°11' E 134°59'816.8
2017-Oct-21 07:31N 34°03' E 134°59'  

Dump ship's entire track history